createdAt,value
2017-06-19T00:01:19.298Z,50.30
2017-06-19T00:03:46.383Z,51.00
2017-06-19T00:06:12.720Z,50.80
2017-06-19T00:08:39.044Z,50.50
2017-06-19T00:11:05.390Z,50.40
2017-06-19T00:13:31.703Z,50.20
2017-06-19T00:15:58.196Z,50.40
2017-06-19T00:18:24.548Z,50.20
2017-06-19T00:20:57.652Z,50.50
2017-06-19T00:23:30.022Z,50.50
2017-06-19T00:25:56.351Z,50.80
2017-06-19T00:28:22.695Z,51.40
2017-06-19T00:30:49.121Z,51.00
2017-06-19T00:33:15.469Z,51.40
2017-06-19T00:35:41.792Z,51.40
2017-06-19T00:38:08.138Z,51.70
2017-06-19T00:40:34.459Z,51.20
2017-06-19T00:43:00.798Z,51.20
2017-06-19T00:45:33.944Z,51.20
2017-06-19T00:48:01.020Z,51.80
2017-06-19T00:50:27.978Z,51.80
2017-06-19T00:52:54.310Z,52.00
2017-06-19T00:55:20.630Z,51.80
2017-06-19T00:57:46.984Z,52.30
2017-06-19T01:00:13.507Z,52.80
2017-06-19T01:02:39.980Z,53.00
2017-06-19T01:05:06.321Z,53.10
2017-06-19T01:07:33.380Z,52.60
2017-06-19T01:10:00.469Z,52.90
2017-06-19T01:12:27.312Z,52.30
2017-06-19T01:14:53.662Z,52.80
2017-06-19T01:17:20.002Z,52.90
2017-06-19T01:19:46.363Z,52.50
2017-06-19T01:22:12.740Z,52.20
2017-06-19T01:24:39.187Z,52.80
2017-06-19T01:27:05.497Z,53.00
2017-06-19T01:29:31.955Z,53.10
2017-06-19T01:31:58.282Z,53.70
2017-06-19T01:34:24.596Z,53.60
2017-06-19T01:36:50.942Z,53.20
2017-06-19T01:39:17.318Z,53.10
2017-06-19T01:41:43.699Z,53.10
2017-06-19T01:44:10.040Z,53.70
2017-06-19T01:46:36.408Z,53.90
2017-06-19T01:49:02.756Z,53.90
2017-06-19T01:51:29.306Z,53.90
2017-06-19T01:53:55.644Z,53.50
2017-06-19T01:56:21.976Z,53.40
2017-06-19T01:58:48.372Z,53.30
2017-06-19T02:01:14.722Z,53.30
2017-06-19T02:03:41.044Z,53.40
2017-06-19T02:06:07.367Z,53.60
2017-06-19T02:08:33.698Z,53.90
2017-06-19T02:11:00.010Z,54.00
2017-06-19T02:13:27.117Z,54.00
2017-06-19T02:15:53.435Z,53.90
2017-06-19T02:18:19.798Z,54.00
2017-06-19T02:20:46.120Z,53.90
2017-06-19T02:23:12.447Z,53.70
2017-06-19T02:25:38.767Z,53.80
2017-06-19T02:28:05.128Z,54.10
2017-06-19T02:30:31.440Z,54.60
2017-06-19T02:32:57.746Z,54.40
2017-06-19T02:35:24.095Z,54.30
2017-06-19T02:37:50.406Z,54.20
2017-06-19T02:40:16.736Z,54.10
2017-06-19T02:42:43.054Z,54.30
2017-06-19T02:45:09.401Z,54.20
2017-06-19T02:47:35.716Z,54.10
2017-06-19T02:50:02.049Z,54.10
2017-06-19T02:52:28.368Z,54.10
2017-06-19T02:54:54.712Z,54.30
2017-06-19T02:57:21.023Z,54.10
2017-06-19T02:59:47.385Z,53.70
2017-06-19T03:02:13.712Z,53.50
2017-06-19T03:04:40.017Z,53.50
2017-06-19T03:07:06.357Z,53.80
2017-06-19T03:09:32.696Z,54.70
2017-06-19T03:11:59.024Z,55.10
2017-06-19T03:14:25.337Z,55.20
2017-06-19T03:16:51.676Z,55.20
2017-06-19T03:19:18.001Z,55.10
2017-06-19T03:21:44.334Z,55.20
2017-06-19T03:24:10.644Z,54.80
2017-06-19T03:26:37.728Z,54.30
2017-06-19T03:29:04.041Z,54.30
2017-06-19T03:31:30.379Z,54.10
2017-06-19T03:33:56.684Z,54.80
2017-06-19T03:36:23.765Z,55.60
2017-06-19T03:38:50.070Z,55.50
2017-06-19T03:41:17.119Z,55.50
2017-06-19T03:46:17.951Z,55.40
2017-06-19T03:48:44.288Z,55.40
2017-06-19T03:51:11.335Z,55.80
2017-06-19T03:53:38.418Z,55.90
2017-06-19T03:56:04.744Z,55.70
2017-06-19T03:58:31.073Z,55.90
2017-06-19T04:00:57.393Z,55.80
2017-06-19T04:03:23.716Z,55.70
2017-06-19T04:05:50.800Z,55.50
2017-06-19T04:08:17.127Z,55.50
2017-06-19T04:10:43.428Z,55.60
2017-06-19T04:13:10.505Z,55.90
2017-06-19T04:15:36.838Z,55.80
2017-06-19T04:18:03.193Z,55.80
2017-06-19T04:20:29.541Z,55.80
2017-06-19T04:22:55.872Z,55.90
2017-06-19T04:25:22.220Z,56.20
2017-06-19T04:27:49.292Z,56.40
2017-06-19T04:30:15.642Z,56.30
2017-06-19T04:32:41.961Z,56.30
2017-06-19T04:35:08.304Z,56.40
2017-06-19T04:37:34.627Z,56.50
2017-06-19T04:40:00.973Z,56.60
2017-06-19T04:42:27.298Z,56.80
2017-06-19T04:44:53.650Z,56.50
2017-06-19T04:47:19.970Z,56.40
2017-06-19T04:49:46.297Z,56.50
2017-06-19T04:52:12.635Z,56.60
2017-06-19T04:54:38.968Z,57.00
2017-06-19T04:57:05.303Z,57.30
2017-06-19T04:59:31.624Z,57.30
2017-06-19T05:01:57.977Z,57.80
2017-06-19T05:04:24.291Z,57.90
2017-06-19T05:06:50.629Z,57.60
2017-06-19T05:09:16.953Z,57.40
2017-06-19T05:11:43.287Z,57.40
2017-06-19T05:14:09.626Z,57.40
2017-06-19T05:16:35.946Z,57.30
2017-06-19T05:19:02.309Z,57.10
2017-06-19T05:21:29.380Z,56.50
2017-06-19T05:23:55.778Z,56.50
2017-06-19T05:26:22.108Z,56.50
2017-06-19T05:28:48.456Z,56.50
2017-06-19T05:31:15.529Z,56.10
2017-06-19T05:33:41.899Z,56.10
2017-06-19T05:36:08.221Z,56.20
2017-06-19T05:38:34.561Z,56.30
2017-06-19T05:41:00.893Z,56.10
2017-06-19T05:43:27.224Z,56.10
2017-06-19T05:45:53.566Z,55.70
2017-06-19T05:48:19.884Z,55.00
2017-06-19T05:50:46.222Z,54.70
2017-06-19T05:53:12.543Z,55.20
2017-06-19T05:55:38.875Z,55.00
2017-06-19T05:58:05.207Z,54.80
2017-06-19T06:00:31.552Z,53.20
2017-06-19T06:02:57.904Z,52.50
2017-06-19T06:05:25.019Z,52.00
2017-06-19T06:07:51.329Z,52.00
2017-06-19T06:10:17.749Z,51.60
2017-06-19T06:12:44.093Z,51.20
2017-06-19T06:15:10.416Z,51.00
2017-06-19T06:17:36.801Z,50.30
2017-06-19T06:20:03.862Z,51.10
2017-06-19T06:22:30.948Z,50.60
2017-06-19T06:24:57.286Z,50.60
2017-06-19T06:27:23.635Z,50.40
2017-06-19T06:29:49.949Z,50.00
2017-06-19T06:32:16.298Z,49.50
2017-06-19T06:34:42.624Z,49.60
2017-06-19T06:37:08.961Z,49.50
2017-06-19T06:39:35.281Z,50.00
2017-06-19T06:42:01.608Z,49.70
2017-06-19T06:44:27.937Z,49.10
2017-06-19T06:46:54.262Z,49.40
2017-06-19T06:49:20.609Z,49.30
2017-06-19T06:51:46.928Z,49.10
2017-06-19T06:54:13.272Z,49.20
2017-06-19T06:56:39.583Z,49.50
2017-06-19T06:59:05.937Z,49.70
2017-06-19T07:01:32.261Z,49.80
2017-06-19T07:03:58.592Z,48.40
2017-06-19T07:06:24.941Z,49.10
2017-06-19T07:08:52.012Z,50.30
2017-06-19T07:11:18.365Z,49.80
2017-06-19T07:13:44.689Z,49.70
2017-06-19T07:16:11.031Z,49.50
2017-06-19T07:18:37.368Z,50.10
2017-06-19T07:21:03.707Z,49.40
2017-06-19T07:23:30.023Z,49.40
2017-06-19T07:25:56.363Z,49.60
2017-06-19T07:28:22.690Z,49.30
2017-06-19T07:30:49.045Z,49.00
2017-06-19T07:33:15.360Z,48.20
2017-06-19T07:35:41.681Z,47.70
2017-06-19T07:38:08.011Z,48.10
2017-06-19T07:40:34.328Z,46.70
2017-06-19T07:43:00.656Z,45.40
2017-06-19T07:45:26.961Z,45.70
2017-06-19T07:47:54.024Z,44.80
2017-06-19T07:50:20.350Z,44.80
2017-06-19T07:52:46.698Z,44.90
2017-06-19T07:55:13.009Z,45.20
2017-06-19T07:57:40.077Z,45.90
2017-06-19T08:00:06.389Z,45.80
2017-06-19T08:02:33.472Z,43.40
2017-06-19T08:04:59.799Z,43.40
2017-06-19T08:07:26.161Z,43.90
2017-06-19T08:09:52.474Z,42.80
2017-06-19T08:12:18.795Z,42.50
2017-06-19T08:14:45.132Z,42.70
2017-06-19T08:17:11.473Z,41.70
2017-06-19T08:19:37.823Z,42.10
2017-06-19T08:22:06.088Z,41.80
2017-06-19T08:24:32.432Z,41.40
2017-06-19T08:26:58.745Z,41.50
2017-06-19T08:29:25.088Z,41.80
2017-06-19T08:31:51.414Z,40.90
2017-06-19T08:34:17.860Z,42.00
2017-06-19T08:36:44.624Z,41.20
2017-06-19T08:39:11.717Z,41.20
2017-06-19T08:41:38.065Z,41.70
2017-06-19T08:44:04.399Z,41.60
2017-06-19T08:46:30.744Z,41.10
2017-06-19T08:48:57.070Z,41.20
2017-06-19T08:51:23.411Z,41.70
2017-06-19T08:53:49.733Z,42.10
2017-06-19T08:56:16.089Z,41.90
2017-06-19T08:58:43.375Z,40.60
2017-06-19T09:01:09.877Z,40.60
2017-06-19T09:03:36.992Z,41.60
2017-06-19T09:06:03.311Z,41.60
2017-06-19T09:08:29.667Z,41.00
2017-06-19T09:10:55.989Z,41.90
2017-06-19T09:13:22.351Z,41.50
2017-06-19T09:15:49.423Z,41.00
2017-06-19T09:18:15.799Z,41.00
2017-06-19T09:20:42.125Z,40.90
2017-06-19T09:23:08.482Z,41.30
2017-06-19T09:25:34.833Z,40.90
2017-06-19T09:28:01.934Z,41.50
2017-06-19T09:30:29.001Z,41.30
2017-06-19T09:32:55.324Z,41.30
2017-06-19T09:35:21.675Z,40.70
2017-06-19T09:37:48.006Z,40.50
2017-06-19T09:40:14.348Z,40.10
2017-06-19T09:42:40.670Z,39.70
2017-06-19T09:45:07.026Z,40.60
2017-06-19T09:47:33.357Z,40.20
2017-06-19T09:49:59.714Z,40.60
2017-06-19T09:52:26.040Z,40.00
2017-06-19T09:54:52.386Z,39.70
2017-06-19T09:57:26.408Z,38.90
2017-06-19T09:59:52.782Z,38.90
2017-06-19T10:02:19.213Z,38.80
2017-06-19T10:04:45.544Z,39.50
2017-06-19T10:07:11.895Z,39.60
2017-06-19T10:09:38.237Z,39.90
2017-06-19T10:12:04.585Z,40.30
2017-06-19T10:14:31.656Z,38.70
2017-06-19T10:16:58.014Z,38.10
2017-06-19T10:19:24.372Z,39.60
2017-06-19T10:21:50.720Z,38.70
2017-06-19T10:24:17.045Z,40.40
2017-06-19T10:26:43.399Z,39.20
2017-06-19T10:29:10.482Z,38.70
2017-06-19T10:31:36.801Z,38.60
2017-06-19T10:34:03.170Z,38.80
2017-06-19T10:36:29.490Z,39.40
2017-06-19T10:38:55.847Z,38.50
2017-06-19T10:41:22.179Z,37.90
2017-06-19T10:43:48.557Z,37.40
2017-06-19T10:46:14.879Z,37.20
2017-06-19T10:48:41.221Z,37.50
2017-06-19T10:51:07.551Z,38.10
2017-06-19T10:53:33.920Z,37.30
2017-06-19T10:56:00.248Z,38.50
2017-06-19T10:58:26.578Z,39.30
2017-06-19T11:00:52.928Z,38.70
2017-06-19T11:03:19.248Z,37.80
2017-06-19T11:05:45.600Z,38.60
2017-06-19T11:08:12.665Z,37.80
2017-06-19T11:10:39.025Z,37.50
2017-06-19T11:13:05.355Z,37.60
2017-06-19T11:15:31.713Z,35.70
2017-06-19T11:17:58.067Z,37.90
2017-06-19T11:20:24.428Z,36.60
2017-06-19T11:22:50.766Z,35.20
2017-06-19T11:25:17.434Z,36.50
2017-06-19T11:27:44.226Z,36.60
2017-06-19T11:30:10.726Z,37.20
2017-06-19T11:32:37.081Z,40.40
2017-06-19T11:35:05.612Z,38.40
2017-06-19T11:37:32.195Z,38.30
2017-06-19T11:39:58.547Z,39.30
2017-06-19T11:42:24.922Z,37.70
2017-06-19T11:44:51.264Z,37.30
2017-06-19T11:47:17.712Z,35.80
2017-06-19T11:49:44.840Z,36.00
2017-06-19T11:52:11.918Z,36.10
2017-06-19T11:54:39.034Z,37.90
2017-06-19T11:57:05.376Z,37.80
2017-06-19T11:59:31.697Z,39.00
2017-06-19T12:01:58.068Z,38.00
2017-06-19T12:04:25.139Z,37.40
2017-06-19T12:06:51.454Z,37.30
2017-06-19T12:09:17.807Z,36.20
2017-06-19T12:11:44.150Z,37.70
2017-06-19T12:14:10.511Z,37.10
2017-06-19T12:16:37.581Z,35.30
2017-06-19T12:19:03.945Z,35.30
2017-06-19T12:21:30.312Z,35.30
2017-06-19T12:23:57.397Z,36.90
2017-06-19T12:26:23.719Z,36.80
2017-06-19T12:28:50.069Z,35.80
2017-06-19T12:31:16.401Z,34.10
2017-06-19T12:33:42.772Z,34.70
2017-06-19T12:36:09.100Z,34.80
2017-06-19T12:38:35.435Z,33.90
2017-06-19T12:41:01.814Z,35.40
2017-06-19T12:43:29.220Z,35.10
2017-06-19T12:45:55.573Z,33.90
2017-06-19T12:48:22.649Z,33.50
2017-06-19T12:50:48.984Z,34.00
2017-06-19T12:53:15.308Z,34.00
2017-06-19T12:55:41.652Z,34.50
2017-06-19T12:58:07.991Z,34.20
2017-06-19T13:00:34.328Z,34.90
2017-06-19T13:03:00.680Z,34.20
2017-06-19T13:05:27.000Z,33.30
2017-06-19T13:07:53.352Z,32.70
2017-06-19T13:10:19.685Z,34.40
2017-06-19T13:12:46.041Z,34.90
2017-06-19T13:15:13.123Z,32.60
2017-06-19T13:17:39.528Z,32.60
2017-06-19T13:20:06.604Z,35.10
2017-06-19T13:22:32.923Z,35.60
2017-06-19T13:24:59.280Z,33.80
2017-06-19T13:27:25.607Z,33.10
2017-06-19T13:29:51.947Z,33.10
2017-06-19T13:32:18.269Z,34.20
2017-06-19T13:34:44.629Z,34.50
2017-06-19T13:37:10.953Z,34.20
2017-06-19T13:39:37.310Z,33.70
2017-06-19T13:42:03.644Z,33.80
2017-06-19T13:44:30.728Z,35.90
2017-06-19T13:46:57.081Z,35.20
2017-06-19T13:49:23.406Z,34.30
2017-06-19T13:51:49.757Z,34.30
2017-06-19T13:54:16.077Z,34.60
2017-06-19T13:56:42.434Z,34.90
2017-06-19T13:59:08.757Z,34.90
2017-06-19T14:01:35.105Z,34.90
2017-06-19T14:04:01.430Z,34.40
2017-06-19T14:06:27.789Z,33.70
2017-06-19T14:08:54.107Z,35.20
2017-06-19T14:11:21.201Z,33.30
2017-06-19T14:13:47.528Z,33.30
2017-06-19T14:16:13.849Z,35.90
2017-06-19T14:18:47.126Z,33.60
2017-06-19T14:21:13.447Z,31.90
2017-06-19T14:23:40.543Z,32.00
2017-06-19T14:26:06.873Z,32.00
2017-06-19T14:28:33.224Z,33.80
2017-06-19T14:30:59.572Z,32.70
2017-06-19T14:33:26.661Z,33.10
2017-06-19T14:35:52.979Z,32.30
2017-06-19T14:38:19.326Z,32.90
2017-06-19T14:40:45.657Z,33.60
2017-06-19T14:43:12.008Z,34.30
2017-06-19T14:45:38.337Z,33.90
2017-06-19T14:48:04.695Z,33.70
2017-06-19T14:50:31.046Z,34.10
2017-06-19T14:52:58.112Z,33.30
2017-06-19T14:55:24.463Z,33.20
2017-06-19T14:57:50.800Z,32.70
2017-06-19T15:00:17.162Z,31.40
2017-06-19T15:02:43.480Z,31.50
2017-06-19T15:05:09.849Z,31.70
2017-06-19T15:07:36.922Z,32.70
2017-06-19T15:10:03.264Z,32.60
2017-06-19T15:12:29.588Z,32.20
2017-06-19T15:14:55.940Z,33.30
2017-06-19T15:17:22.289Z,33.20
2017-06-19T15:19:48.635Z,34.70
2017-06-19T15:22:21.097Z,35.00
2017-06-19T15:24:47.438Z,35.00
2017-06-19T15:27:13.805Z,35.20
2017-06-19T15:29:40.126Z,33.70
2017-06-19T15:32:07.213Z,34.30
2017-06-19T15:34:33.548Z,34.30
2017-06-19T15:36:59.892Z,33.70
2017-06-19T15:39:26.221Z,33.60
2017-06-19T15:41:52.585Z,33.40
2017-06-19T15:44:19.661Z,33.30
2017-06-19T15:46:46.014Z,33.30
2017-06-19T15:49:12.349Z,34.50
2017-06-19T15:51:38.732Z,33.60
2017-06-19T15:54:05.795Z,34.70
2017-06-19T15:56:32.128Z,34.60
2017-06-19T15:58:58.471Z,35.60
2017-06-19T16:01:24.799Z,35.60
2017-06-19T16:03:51.157Z,35.40
2017-06-19T16:06:17.485Z,35.00
2017-06-19T16:08:43.836Z,35.00
2017-06-19T16:11:10.161Z,35.80
2017-06-19T16:13:36.503Z,36.10
2017-06-19T16:16:02.828Z,36.10
2017-06-19T16:18:29.194Z,35.90
2017-06-19T16:20:56.261Z,36.00
2017-06-19T16:23:22.584Z,36.00
2017-06-19T16:25:48.921Z,35.60
2017-06-19T16:28:15.243Z,36.30
2017-06-19T16:30:41.591Z,36.00
2017-06-19T16:33:07.973Z,36.00
2017-06-19T16:35:34.432Z,35.90
2017-06-19T16:38:01.495Z,36.30
2017-06-19T16:40:27.860Z,36.30
2017-06-19T16:42:54.180Z,37.20
2017-06-19T16:45:20.510Z,37.60
2017-06-19T16:47:47.047Z,37.80
2017-06-19T16:50:13.414Z,37.10
2017-06-19T16:52:39.736Z,36.50
2017-06-19T16:55:06.043Z,37.20
2017-06-19T16:57:32.392Z,37.40
2017-06-19T16:59:58.709Z,37.70
2017-06-19T17:02:25.064Z,38.40
2017-06-19T17:04:51.385Z,38.80
2017-06-19T17:07:17.720Z,38.70
2017-06-19T17:09:44.232Z,38.70
2017-06-19T17:12:10.580Z,38.00
2017-06-19T17:14:36.911Z,37.60
2017-06-19T17:17:03.259Z,38.30
2017-06-19T17:19:29.604Z,39.00
2017-06-19T17:21:56.698Z,38.80
2017-06-19T17:24:23.115Z,38.80
2017-06-19T17:26:49.501Z,39.00
2017-06-19T17:29:15.920Z,39.70
2017-06-19T17:31:42.305Z,40.50
2017-06-19T17:34:08.660Z,41.10
2017-06-19T17:36:35.089Z,41.10
2017-06-19T17:39:01.567Z,40.60
2017-06-19T17:41:27.904Z,40.10
2017-06-19T17:43:54.518Z,40.40
2017-06-19T17:46:20.851Z,40.50
2017-06-19T17:48:47.214Z,40.50
2017-06-19T17:51:13.711Z,40.70
2017-06-19T17:53:40.137Z,41.50
2017-06-19T17:56:06.479Z,40.50
2017-06-19T17:58:33.012Z,40.50
2017-06-19T18:00:59.370Z,40.90
2017-06-19T18:03:25.683Z,40.90
2017-06-19T18:05:52.029Z,40.80
2017-06-19T18:08:18.367Z,41.10
2017-06-19T18:10:44.725Z,41.40
2017-06-19T18:13:11.799Z,41.20
2017-06-19T18:15:38.984Z,41.20
2017-06-19T18:18:05.328Z,41.00
2017-06-19T18:20:31.647Z,41.00
2017-06-19T18:22:58.219Z,41.00
2017-06-19T18:25:25.269Z,40.80
2017-06-19T18:27:52.343Z,40.80
2017-06-19T18:30:18.893Z,40.80
2017-06-19T18:32:45.251Z,40.90
2017-06-19T18:35:11.562Z,40.80
2017-06-19T18:37:38.000Z,40.80
2017-06-19T18:40:04.319Z,40.80
2017-06-19T18:42:31.065Z,40.80
2017-06-19T18:44:57.389Z,40.50
2017-06-19T18:47:23.822Z,40.40
2017-06-19T18:49:50.149Z,40.50
2017-06-19T18:52:16.498Z,40.60
2017-06-19T18:54:42.908Z,40.60
2017-06-19T18:57:09.222Z,40.40
2017-06-19T18:59:35.573Z,40.50
2017-06-19T19:02:01.893Z,40.70
2017-06-19T19:04:28.234Z,40.90
2017-06-19T19:06:54.554Z,41.00
2017-06-19T19:09:20.905Z,40.90
2017-06-19T19:11:47.220Z,40.90
2017-06-19T19:14:13.564Z,41.10
2017-06-19T19:16:39.870Z,41.50
2017-06-19T19:19:06.245Z,41.70
2017-06-19T19:21:32.569Z,42.00
2017-06-19T19:23:58.908Z,42.50
2017-06-19T19:26:25.237Z,42.30
2017-06-19T19:28:51.588Z,42.10
2017-06-19T19:31:17.915Z,42.50
2017-06-19T19:33:44.272Z,42.50
2017-06-19T19:36:10.960Z,43.20
2017-06-19T19:38:37.305Z,43.50
2017-06-19T19:41:03.644Z,43.10
2017-06-19T19:43:29.992Z,42.50
2017-06-19T19:45:57.064Z,43.60
2017-06-19T19:48:23.423Z,43.50
2017-06-19T19:50:49.742Z,44.80
2017-06-19T19:53:16.056Z,44.70
2017-06-19T19:55:42.400Z,45.00
2017-06-19T19:58:08.867Z,45.30
2017-06-19T20:00:35.219Z,45.50
2017-06-19T20:03:01.574Z,45.30
2017-06-19T20:05:27.981Z,46.00
2017-06-19T20:07:54.305Z,47.00
2017-06-19T20:10:20.758Z,46.30
2017-06-19T20:12:47.829Z,47.30
2017-06-19T20:15:14.174Z,47.30
2017-06-19T20:17:40.523Z,48.20
2017-06-19T20:20:06.868Z,47.50
2017-06-19T20:22:33.191Z,47.10
2017-06-19T20:24:59.509Z,46.80
2017-06-19T20:27:25.855Z,46.90
2017-06-19T20:29:52.175Z,46.90
2017-06-19T20:32:18.525Z,46.80
2017-06-19T20:34:44.839Z,47.40
2017-06-19T20:37:11.200Z,47.70
2017-06-19T20:39:38.710Z,47.90
2017-06-19T20:42:05.067Z,48.00
2017-06-19T20:44:31.681Z,48.10
2017-06-19T20:46:58.112Z,48.10
2017-06-19T20:49:24.584Z,48.00
2017-06-19T20:51:50.931Z,47.90
2017-06-19T20:54:17.978Z,48.20
2017-06-19T20:56:45.079Z,48.60
2017-06-19T20:59:11.419Z,48.60
2017-06-19T21:01:37.752Z,48.70
2017-06-19T21:04:04.105Z,48.70
2017-06-19T21:06:30.428Z,49.00
2017-06-19T21:08:56.755Z,48.90
2017-06-19T21:11:23.188Z,48.90
2017-06-19T21:13:49.734Z,49.20
2017-06-19T21:16:16.810Z,49.60
2017-06-19T21:18:43.221Z,49.60
2017-06-19T21:21:09.523Z,49.30
2017-06-19T21:23:35.856Z,49.20
2017-06-19T21:26:02.173Z,49.50
2017-06-19T21:28:28.530Z,49.20
2017-06-19T21:30:55.175Z,49.40
2017-06-19T21:33:21.541Z,49.80
2017-06-19T21:35:47.853Z,49.40
2017-06-19T21:38:14.165Z,49.30
2017-06-19T21:40:40.517Z,49.30
2017-06-19T21:43:06.820Z,49.20
2017-06-19T21:45:33.255Z,49.90
2017-06-19T21:47:59.608Z,50.10
2017-06-19T21:50:25.937Z,50.10
2017-06-19T21:52:52.253Z,49.70
2017-06-19T21:55:18.621Z,49.90
2017-06-19T21:57:44.930Z,50.30
2017-06-19T22:00:11.301Z,50.40
2017-06-19T22:02:38.375Z,50.50
2017-06-19T22:05:04.756Z,50.50
2017-06-19T22:07:31.141Z,50.40
2017-06-19T22:09:57.459Z,50.20
2017-06-19T22:12:23.783Z,50.50
2017-06-19T22:14:50.269Z,50.40
2017-06-19T22:17:16.592Z,50.90
2017-06-19T22:19:42.956Z,50.30
2017-06-19T22:22:15.336Z,50.20
2017-06-19T22:24:42.400Z,51.00
2017-06-19T22:27:09.484Z,51.00
2017-06-19T22:29:35.800Z,50.90
2017-06-19T22:32:02.119Z,50.80
2017-06-19T22:34:28.458Z,50.80
2017-06-19T22:36:54.771Z,50.50
2017-06-19T22:39:21.857Z,50.50
2017-06-19T22:41:48.180Z,50.40
2017-06-19T22:44:14.522Z,50.90
2017-06-19T22:46:40.843Z,51.20
2017-06-19T22:49:07.188Z,51.40
2017-06-19T22:51:33.516Z,51.50
2017-06-19T22:53:59.862Z,51.90
2017-06-19T22:56:26.209Z,51.30
2017-06-19T22:58:52.566Z,51.50
2017-06-19T23:01:19.632Z,51.90
2017-06-19T23:03:52.937Z,51.90
2017-06-19T23:06:19.263Z,52.30
2017-06-19T23:08:45.608Z,52.20
2017-06-19T23:11:11.934Z,52.40
2017-06-19T23:13:38.281Z,52.40
2017-06-19T23:16:04.609Z,52.50
2017-06-19T23:18:30.965Z,52.60
2017-06-19T23:20:58.030Z,52.90
2017-06-19T23:23:24.346Z,52.90
2017-06-19T23:25:51.421Z,53.40
2017-06-19T23:28:17.742Z,53.30
2017-06-19T23:30:44.087Z,53.40
2017-06-19T23:33:10.397Z,53.50
2017-06-19T23:35:36.739Z,53.30
2017-06-19T23:38:03.057Z,53.30
2017-06-19T23:40:30.145Z,53.70
2017-06-19T23:42:56.451Z,53.60
2017-06-19T23:45:22.784Z,53.60
2017-06-19T23:47:49.104Z,53.70
2017-06-19T23:50:15.433Z,53.80
2017-06-19T23:52:41.745Z,53.90
2017-06-19T23:55:08.816Z,53.90
2017-06-19T23:57:35.203Z,54.10
